createdAt,value
2023-05-12T00:02:20.026Z,100.00
2023-05-12T00:04:47.394Z,100.00
2023-05-12T00:07:14.848Z,100.00
2023-05-12T00:09:42.342Z,100.00
2023-05-12T00:12:10.438Z,100.00
2023-05-12T00:14:38.897Z,100.00
2023-05-12T00:17:07.250Z,100.00
2023-05-12T00:19:35.679Z,100.00
2023-05-12T00:22:03.570Z,100.00
2023-05-12T00:24:31.524Z,100.00
2023-05-12T00:26:59.364Z,100.00
2023-05-12T00:29:27.933Z,100.00
2023-05-12T00:31:56.531Z,100.00
2023-05-12T00:34:24.078Z,100.00
2023-05-12T00:36:51.608Z,100.00
2023-05-12T00:39:19.244Z,100.00
2023-05-12T00:41:48.014Z,100.00
2023-05-12T00:44:15.340Z,100.00
2023-05-12T00:46:43.154Z,100.00
2023-05-12T00:49:11.429Z,100.00
2023-05-12T00:51:40.025Z,100.00
2023-05-12T00:54:07.269Z,100.00
2023-05-12T00:56:39.553Z,100.00
2023-05-12T00:59:09.348Z,100.00
2023-05-12T01:01:40.836Z,100.00
2023-05-12T01:04:09.421Z,100.00
2023-05-12T01:06:54.700Z,100.00
2023-05-12T01:09:22.242Z,100.00
2023-05-12T01:11:50.132Z,100.00
2023-05-12T01:14:19.612Z,100.00
2023-05-12T01:16:54.087Z,100.00
2023-05-12T01:19:46.185Z,100.00
2023-05-12T01:22:15.586Z,100.00
2023-05-12T01:24:58.237Z,100.00
2023-05-12T01:27:29.283Z,100.00
2023-05-12T01:30:05.839Z,100.00
2023-05-12T01:32:36.689Z,100.00
2023-05-12T01:35:05.941Z,100.00
2023-05-12T01:37:34.353Z,100.00
2023-05-12T01:40:05.110Z,100.00
2023-05-12T01:42:32.999Z,100.00
2023-05-12T01:45:00.343Z,100.00
2023-05-12T01:47:28.682Z,100.00
2023-05-12T01:50:03.765Z,100.00
2023-05-12T01:52:31.046Z,100.00
2023-05-12T01:54:58.318Z,100.00
2023-05-12T01:57:27.088Z,100.00
2023-05-12T01:59:58.160Z,100.00
2023-05-12T02:02:26.194Z,100.00
2023-05-12T02:04:55.938Z,100.00
2023-05-12T02:07:23.584Z,100.00
2023-05-12T02:09:51.180Z,100.00
2023-05-12T02:12:19.112Z,100.00
2023-05-12T02:14:46.701Z,100.00
2023-05-12T02:17:14.595Z,100.00
2023-05-12T02:19:42.141Z,100.00
2023-05-12T02:22:12.456Z,100.00
2023-05-12T02:24:40.515Z,100.00
2023-05-12T02:27:08.266Z,100.00
2023-05-12T02:29:36.440Z,100.00
2023-05-12T02:32:05.826Z,100.00
2023-05-12T02:34:33.110Z,100.00
2023-05-12T02:37:00.664Z,100.00
2023-05-12T02:39:27.834Z,100.00
2023-05-12T02:41:55.054Z,100.00
2023-05-12T02:44:22.552Z,100.00
2023-05-12T02:46:50.508Z,100.00
2023-05-12T02:49:17.652Z,100.00
2023-05-12T02:51:48.355Z,100.00
2023-05-12T02:54:15.641Z,100.00
2023-05-12T02:56:42.817Z,100.00
2023-05-12T02:59:10.836Z,100.00
2023-05-12T03:01:39.035Z,100.00
2023-05-12T03:04:07.299Z,100.00
2023-05-12T03:06:34.892Z,100.00
2023-05-12T03:09:02.191Z,100.00
2023-05-12T03:11:29.839Z,100.00
2023-05-12T03:13:57.808Z,100.00
2023-05-12T03:16:25.423Z,100.00
2023-05-12T03:18:53.638Z,100.00
2023-05-12T03:21:21.016Z,100.00
2023-05-12T03:23:48.576Z,100.00
2023-05-12T03:26:17.178Z,100.00
2023-05-12T03:28:49.869Z,100.00
2023-05-12T03:31:17.196Z,100.00
2023-05-12T03:33:44.827Z,100.00
2023-05-12T03:36:12.117Z,100.00
2023-05-12T03:38:39.630Z,100.00
2023-05-12T03:41:07.715Z,100.00
2023-05-12T03:43:36.058Z,100.00
2023-05-12T03:46:04.482Z,100.00
2023-05-12T03:48:32.459Z,100.00
2023-05-12T03:50:59.737Z,100.00
2023-05-12T03:53:28.583Z,100.00
2023-05-12T03:55:57.441Z,100.00
2023-05-12T03:58:25.312Z,100.00
2023-05-12T04:00:56.693Z,100.00
2023-05-12T04:03:24.176Z,100.00
2023-05-12T04:05:58.058Z,100.00
2023-05-12T04:08:25.206Z,100.00
2023-05-12T04:10:57.773Z,100.00
2023-05-12T04:13:27.414Z,100.00
2023-05-12T04:15:59.135Z,100.00
2023-05-12T04:18:28.057Z,100.00
2023-05-12T04:20:56.114Z,100.00
2023-05-12T04:23:24.225Z,100.00
2023-05-12T04:25:52.373Z,100.00
2023-05-12T04:28:20.163Z,100.00
2023-05-12T04:30:48.346Z,100.00
2023-05-12T04:33:15.697Z,100.00
2023-05-12T04:35:44.381Z,100.00
2023-05-12T04:38:14.420Z,100.00
2023-05-12T04:40:42.105Z,100.00
2023-05-12T04:43:59.813Z,100.00
2023-05-12T04:45:58.594Z,100.00
2023-05-12T04:48:29.172Z,100.00
2023-05-12T04:51:00.342Z,100.00
2023-05-12T04:53:28.075Z,100.00
2023-05-12T04:55:56.565Z,100.00
2023-05-12T04:58:24.971Z,100.00
2023-05-12T05:00:53.976Z,100.00
2023-05-12T05:03:32.114Z,100.00
2023-05-12T05:05:59.491Z,100.00
2023-05-12T05:08:27.685Z,100.00
2023-05-12T05:12:10.183Z,100.00
2023-05-12T05:14:37.757Z,100.00
2023-05-12T05:18:23.862Z,100.00
2023-05-12T05:22:08.063Z,100.00
2023-05-12T05:24:35.896Z,100.00
2023-05-12T05:27:04.299Z,100.00
2023-05-12T05:29:32.091Z,100.00
2023-05-12T05:31:59.685Z,100.00
2023-05-12T05:35:42.980Z,100.00
2023-05-12T05:39:30.820Z,100.00
2023-05-12T05:43:13.638Z,100.00
2023-05-12T05:46:56.435Z,100.00
2023-05-12T05:50:41.700Z,100.00
2023-05-12T05:54:25.302Z,100.00
2023-05-12T05:58:08.701Z,100.00
2023-05-12T06:00:36.500Z,100.00
2023-05-12T06:03:04.575Z,100.00
2023-05-12T06:06:47.807Z,100.00
2023-05-12T06:10:02.476Z,100.00
2023-05-12T06:12:30.442Z,100.00
2023-05-12T06:14:59.037Z,100.00
2023-05-12T06:17:26.294Z,100.00
2023-05-12T06:19:53.492Z,100.00
2023-05-12T06:22:21.399Z,100.00
2023-05-12T06:24:49.466Z,100.00
2023-05-12T06:27:17.216Z,100.00
2023-05-12T06:29:47.506Z,100.00
2023-05-12T06:32:15.501Z,100.00
2023-05-12T06:34:43.553Z,100.00
2023-05-12T06:37:11.461Z,100.00
2023-05-12T06:39:38.703Z,100.00
2023-05-12T06:42:06.521Z,100.00
2023-05-12T06:44:42.474Z,100.00
2023-05-12T06:47:09.949Z,100.00
2023-05-12T06:49:38.559Z,100.00
2023-05-12T06:52:07.276Z,100.00
2023-05-12T06:54:35.027Z,100.00
2023-05-12T06:57:02.661Z,100.00
2023-05-12T06:59:31.148Z,100.00
2023-05-12T07:02:00.503Z,100.00
2023-05-12T07:04:28.238Z,100.00
2023-05-12T07:06:56.601Z,100.00
2023-05-12T07:09:23.912Z,100.00
2023-05-12T07:11:51.519Z,100.00
2023-05-12T07:14:18.949Z,100.00
2023-05-12T07:16:50.853Z,100.00
2023-05-12T07:19:18.213Z,100.00
2023-05-12T07:21:46.146Z,100.00
2023-05-12T07:24:13.984Z,100.00
2023-05-12T07:26:41.713Z,100.00
2023-05-12T07:29:13.657Z,100.00
2023-05-12T07:31:41.393Z,100.00
2023-05-12T07:34:08.905Z,100.00
2023-05-12T07:36:38.243Z,100.00
2023-05-12T07:39:06.208Z,100.00
2023-05-12T07:41:34.610Z,100.00
2023-05-12T07:44:04.802Z,100.00
2023-05-12T07:46:32.240Z,100.00
2023-05-12T07:48:59.450Z,100.00
2023-05-12T07:51:26.826Z,100.00
2023-05-12T07:53:55.287Z,100.00
2023-05-12T07:56:29.374Z,100.00
2023-05-12T07:59:02.395Z,100.00
2023-05-12T08:01:30.948Z,100.00
2023-05-12T08:03:58.438Z,100.00
2023-05-12T08:06:26.517Z,100.00
2023-05-12T08:08:56.240Z,100.00
2023-05-12T08:11:26.526Z,100.00
2023-05-12T08:13:54.026Z,100.00
2023-05-12T08:16:21.320Z,100.00
2023-05-12T08:18:48.743Z,100.00
2023-05-12T08:21:15.892Z,100.00
2023-05-12T08:23:43.646Z,100.00
2023-05-12T08:26:11.558Z,100.00
2023-05-12T08:28:39.207Z,100.00
2023-05-12T08:31:07.371Z,100.00
2023-05-12T08:33:36.821Z,100.00
2023-05-12T08:36:04.565Z,100.00
2023-05-12T08:38:33.482Z,100.00
2023-05-12T08:41:37.044Z,100.00
2023-05-12T08:44:06.482Z,100.00
2023-05-12T08:46:35.169Z,100.00
2023-05-12T08:49:06.514Z,100.00
2023-05-12T08:51:39.581Z,100.00
2023-05-12T08:54:12.471Z,100.00
2023-05-12T08:59:11.878Z,100.00
2023-05-12T09:01:42.962Z,100.00
2023-05-12T09:04:17.585Z,100.00
2023-05-12T09:06:49.397Z,100.00
2023-05-12T09:09:18.067Z,100.00
2023-05-12T09:11:48.524Z,100.00
2023-05-12T09:14:25.680Z,100.00
2023-05-12T09:17:04.995Z,100.00
2023-05-12T09:19:34.400Z,100.00
2023-05-12T09:22:02.474Z,100.00
2023-05-12T09:24:39.599Z,100.00
2023-05-12T09:27:08.202Z,100.00
2023-05-12T09:29:45.059Z,100.00
2023-05-12T09:32:18.925Z,100.00
2023-05-12T09:34:46.317Z,100.00
2023-05-12T09:37:15.340Z,100.00
2023-05-12T09:39:44.280Z,100.00
2023-05-12T09:42:12.990Z,100.00
2023-05-12T09:44:41.276Z,100.00
2023-05-12T09:47:10.383Z,100.00
2023-05-12T09:49:38.197Z,100.00
2023-05-12T09:52:06.156Z,100.00
2023-05-12T09:54:34.613Z,100.00
2023-05-12T09:57:07.272Z,94.54
2023-05-12T09:59:38.659Z,91.96
2023-05-12T10:02:14.068Z,97.49
2023-05-12T10:04:58.622Z,97.93
2023-05-12T10:07:28.227Z,98.98
2023-05-12T10:10:01.501Z,100.00
2023-05-12T10:12:29.815Z,100.00
2023-05-12T10:14:58.752Z,100.00
2023-05-12T10:17:28.171Z,100.00
2023-05-12T10:19:57.335Z,99.56
2023-05-12T10:22:28.980Z,98.34
2023-05-12T10:24:57.602Z,100.00
2023-05-12T10:27:25.959Z,99.80
2023-05-12T10:29:55.420Z,98.70
2023-05-12T10:32:23.013Z,98.25
2023-05-12T10:34:50.911Z,100.00
2023-05-12T10:37:18.534Z,100.00
2023-05-12T10:39:52.953Z,100.00
2023-05-12T10:42:26.151Z,100.00
2023-05-12T10:44:56.705Z,100.00
2023-05-12T10:47:37.550Z,100.00
2023-05-12T10:50:05.977Z,100.00
2023-05-12T10:52:33.610Z,100.00
2023-05-12T10:55:04.384Z,100.00
2023-05-12T10:57:33.722Z,100.00
2023-05-12T11:00:03.638Z,100.00
2023-05-12T11:02:34.968Z,100.00
2023-05-12T11:05:17.329Z,100.00
2023-05-12T11:07:50.495Z,100.00
2023-05-12T11:10:19.645Z,100.00
2023-05-12T11:12:55.168Z,100.00
2023-05-12T11:15:23.488Z,100.00
2023-05-12T11:17:51.260Z,100.00
2023-05-12T11:20:28.123Z,100.00
2023-05-12T11:22:57.205Z,100.00
2023-05-12T11:25:30.641Z,100.00
2023-05-12T11:27:58.298Z,100.00
2023-05-12T11:30:26.095Z,100.00
2023-05-12T11:33:04.051Z,100.00
2023-05-12T11:35:32.619Z,100.00
2023-05-12T11:38:00.635Z,100.00
2023-05-12T11:40:28.752Z,100.00
2023-05-12T11:42:56.517Z,100.00
2023-05-12T11:45:34.313Z,100.00
2023-05-12T11:48:14.317Z,100.00
2023-05-12T11:50:47.534Z,100.00
2023-05-12T11:53:18.865Z,100.00
2023-05-12T11:55:55.115Z,100.00
2023-05-12T11:58:27.338Z,100.00
2023-05-12T12:00:55.588Z,100.00
2023-05-12T12:03:25.315Z,100.00
2023-05-12T12:06:03.412Z,100.00
2023-05-12T12:08:31.023Z,100.00
2023-05-12T12:11:00.421Z,100.00
2023-05-12T12:13:29.382Z,100.00
2023-05-12T12:15:57.186Z,100.00
2023-05-12T12:18:25.033Z,100.00
2023-05-12T12:20:52.323Z,93.08
2023-05-12T12:23:19.975Z,82.59
2023-05-12T12:25:47.748Z,81.51
2023-05-12T12:28:15.292Z,77.89
2023-05-12T12:30:43.293Z,90.81
2023-05-12T12:33:11.117Z,85.17
2023-05-12T12:35:38.772Z,83.48
2023-05-12T12:38:06.782Z,84.74
2023-05-12T12:40:34.194Z,78.09
2023-05-12T12:43:01.735Z,75.56
2023-05-12T12:45:29.034Z,66.78
2023-05-12T12:47:56.441Z,68.18
2023-05-12T12:50:25.122Z,77.41
2023-05-12T12:52:53.860Z,65.09
2023-05-12T12:55:21.902Z,69.42
2023-05-12T12:57:49.158Z,78.34
2023-05-12T13:00:17.369Z,88.59
2023-05-12T13:02:45.597Z,100.00
2023-05-12T13:05:13.244Z,100.00
2023-05-12T13:07:40.469Z,100.00
2023-05-12T13:10:34.582Z,100.00
2023-05-12T13:13:04.865Z,100.00
2023-05-12T13:15:35.032Z,100.00
2023-05-12T13:18:02.852Z,100.00
2023-05-12T13:20:30.165Z,100.00
2023-05-12T13:22:57.702Z,100.00
2023-05-12T13:25:27.552Z,100.00
2023-05-12T13:27:55.197Z,100.00
2023-05-12T13:30:24.972Z,100.00
2023-05-12T13:32:52.511Z,100.00
2023-05-12T13:35:20.242Z,100.00
2023-05-12T13:37:48.372Z,100.00
2023-05-12T13:40:15.788Z,100.00
2023-05-12T13:42:42.893Z,100.00
2023-05-12T13:45:11.149Z,100.00
2023-05-12T13:47:38.365Z,100.00
2023-05-12T13:50:07.873Z,100.00
2023-05-12T13:52:35.346Z,100.00
2023-05-12T13:55:03.142Z,100.00
2023-05-12T13:57:30.460Z,100.00
2023-05-12T13:59:58.697Z,100.00
2023-05-12T14:02:27.043Z,100.00
2023-05-12T14:04:56.437Z,100.00
2023-05-12T14:07:23.735Z,100.00
2023-05-12T14:09:51.088Z,100.00
2023-05-12T14:12:18.279Z,100.00
2023-05-12T14:14:49.856Z,100.00
2023-05-12T14:17:18.694Z,100.00
2023-05-12T14:19:46.422Z,94.10
2023-05-12T14:22:25.414Z,95.19
2023-05-12T14:25:03.032Z,93.50
2023-05-12T14:27:30.214Z,97.17
2023-05-12T14:29:57.655Z,100.00
2023-05-12T14:32:25.436Z,100.00
2023-05-12T14:34:57.877Z,100.00
2023-05-12T14:37:25.450Z,100.00
2023-05-12T14:39:55.122Z,100.00
2023-05-12T14:42:23.672Z,100.00
2023-05-12T14:44:51.054Z,100.00
2023-05-12T14:47:23.194Z,100.00
2023-05-12T14:49:50.584Z,100.00
2023-05-12T14:52:18.442Z,100.00
2023-05-12T14:54:45.850Z,100.00
2023-05-12T14:57:13.630Z,100.00
2023-05-12T14:59:41.293Z,100.00
2023-05-12T15:02:08.861Z,100.00
2023-05-12T15:04:36.359Z,100.00
2023-05-12T15:07:04.962Z,100.00
2023-05-12T15:09:32.056Z,100.00
2023-05-12T15:11:59.176Z,100.00
2023-05-12T15:14:26.314Z,100.00
2023-05-12T15:16:53.747Z,100.00
2023-05-12T15:19:21.351Z,100.00
2023-05-12T15:21:49.483Z,97.32
2023-05-12T15:24:16.909Z,89.04
2023-05-12T15:26:44.061Z,89.19
2023-05-12T15:29:11.771Z,84.53
2023-05-12T15:31:39.276Z,80.75
2023-05-12T15:34:07.213Z,82.73
2023-05-12T15:36:35.118Z,78.72
2023-05-12T15:39:03.226Z,81.13
2023-05-12T15:41:30.579Z,83.12
2023-05-12T15:43:57.823Z,86.31
2023-05-12T15:46:25.049Z,81.10
2023-05-12T15:48:52.238Z,99.06
2023-05-12T15:51:19.399Z,93.19
2023-05-12T15:53:46.761Z,100.00
2023-05-12T15:56:13.937Z,100.00
2023-05-12T15:58:41.076Z,100.00
2023-05-12T16:01:08.244Z,100.00
2023-05-12T16:03:35.460Z,100.00
2023-05-12T16:06:03.188Z,100.00
2023-05-12T16:08:30.352Z,100.00
2023-05-12T16:10:57.624Z,100.00
2023-05-12T16:13:24.877Z,100.00
2023-05-12T16:15:53.194Z,100.00
2023-05-12T16:18:20.655Z,100.00
2023-05-12T16:20:48.167Z,100.00
2023-05-12T16:23:17.280Z,100.00
2023-05-12T16:25:46.061Z,100.00
2023-05-12T16:28:14.477Z,100.00
2023-05-12T16:30:41.636Z,100.00
2023-05-12T16:33:08.939Z,100.00
2023-05-12T16:35:36.398Z,100.00
2023-05-12T16:38:04.116Z,100.00
2023-05-12T16:40:31.652Z,100.00
2023-05-12T16:42:58.811Z,100.00
2023-05-12T16:45:26.008Z,100.00
2023-05-12T16:47:56.114Z,100.00
2023-05-12T16:50:23.271Z,100.00
2023-05-12T16:52:51.758Z,100.00
2023-05-12T16:55:19.429Z,100.00
2023-05-12T16:57:46.645Z,100.00
2023-05-12T17:00:15.407Z,100.00
2023-05-12T17:02:42.810Z,100.00
2023-05-12T17:05:10.326Z,100.00
2023-05-12T17:07:37.855Z,100.00
2023-05-12T17:10:05.595Z,100.00
2023-05-12T17:12:32.722Z,100.00
2023-05-12T17:15:07.584Z,100.00
2023-05-12T17:17:36.185Z,100.00
2023-05-12T17:20:04.176Z,100.00
2023-05-12T17:22:32.451Z,100.00
2023-05-12T17:24:59.574Z,100.00
2023-05-12T17:27:33.386Z,100.00
2023-05-12T17:30:04.552Z,100.00
2023-05-12T17:32:32.704Z,100.00
2023-05-12T17:35:09.420Z,100.00
2023-05-12T17:37:38.261Z,100.00
2023-05-12T17:40:07.779Z,100.00
2023-05-12T17:42:35.400Z,100.00
2023-05-12T17:45:03.276Z,100.00
2023-05-12T17:47:31.066Z,100.00
2023-05-12T17:49:58.449Z,100.00
2023-05-12T17:52:25.768Z,100.00
2023-05-12T17:54:57.192Z,100.00
2023-05-12T17:57:24.564Z,100.00
2023-05-12T17:59:51.953Z,100.00
2023-05-12T18:02:19.707Z,100.00
2023-05-12T18:04:47.073Z,100.00
2023-05-12T18:07:14.696Z,100.00
2023-05-12T18:09:41.868Z,100.00
2023-05-12T18:12:09.341Z,100.00
2023-05-12T18:14:36.489Z,100.00
2023-05-12T18:17:03.790Z,100.00
2023-05-12T18:19:31.330Z,100.00
2023-05-12T18:21:58.664Z,100.00
2023-05-12T18:24:26.266Z,100.00
2023-05-12T18:26:53.492Z,100.00
2023-05-12T18:29:20.734Z,100.00
2023-05-12T18:31:48.090Z,100.00
2023-05-12T18:34:15.407Z,100.00
2023-05-12T18:36:42.729Z,100.00
2023-05-12T18:39:10.606Z,100.00
2023-05-12T18:41:38.854Z,100.00
2023-05-12T18:44:08.515Z,100.00
2023-05-12T18:46:36.098Z,100.00
2023-05-12T18:49:03.756Z,100.00
2023-05-12T18:51:30.916Z,100.00
2023-05-12T18:53:58.278Z,100.00
2023-05-12T18:56:25.693Z,100.00
2023-05-12T18:58:52.889Z,100.00
2023-05-12T19:01:20.483Z,100.00
2023-05-12T19:03:48.582Z,100.00
2023-05-12T19:06:15.950Z,100.00
2023-05-12T19:08:43.073Z,100.00
2023-05-12T19:11:10.321Z,100.00
2023-05-12T19:13:42.262Z,100.00
2023-05-12T19:16:09.407Z,100.00
2023-05-12T19:18:36.672Z,100.00
2023-05-12T19:21:03.965Z,100.00
2023-05-12T19:23:31.288Z,100.00
2023-05-12T19:26:00.397Z,100.00
2023-05-12T19:28:28.420Z,100.00
2023-05-12T19:30:55.962Z,100.00
2023-05-12T19:33:23.222Z,100.00
2023-05-12T19:35:50.442Z,100.00
2023-05-12T19:38:18.596Z,100.00
2023-05-12T19:40:45.851Z,100.00
2023-05-12T19:43:13.158Z,100.00
2023-05-12T19:45:40.491Z,100.00
2023-05-12T19:48:08.113Z,100.00
2023-05-12T19:50:37.514Z,100.00
2023-05-12T19:53:04.694Z,100.00
2023-05-12T19:55:31.918Z,100.00
2023-05-12T19:57:59.533Z,100.00
2023-05-12T20:00:26.777Z,100.00
2023-05-12T20:02:54.209Z,100.00
2023-05-12T20:05:21.590Z,100.00
2023-05-12T20:07:49.062Z,100.00
2023-05-12T20:10:17.066Z,100.00
2023-05-12T20:12:44.561Z,100.00
2023-05-12T20:15:12.021Z,100.00
2023-05-12T20:17:39.240Z,100.00
2023-05-12T20:20:07.984Z,100.00
2023-05-12T20:22:35.315Z,100.00
2023-05-12T20:25:04.726Z,100.00
2023-05-12T20:27:33.627Z,100.00
2023-05-12T20:30:01.307Z,100.00
2023-05-12T20:32:28.697Z,100.00
2023-05-12T20:34:55.811Z,100.00
2023-05-12T20:37:22.913Z,100.00
2023-05-12T20:39:50.108Z,100.00
2023-05-12T20:42:17.419Z,100.00
2023-05-12T20:44:44.621Z,100.00
2023-05-12T20:47:12.936Z,100.00
2023-05-12T20:49:40.365Z,100.00
2023-05-12T20:52:07.849Z,100.00
2023-05-12T20:54:35.157Z,100.00
2023-05-12T20:57:02.292Z,100.00
2023-05-12T20:59:29.414Z,100.00
2023-05-12T21:02:27.993Z,100.00
2023-05-12T21:04:56.007Z,100.00
2023-05-12T21:07:23.304Z,100.00
2023-05-12T21:09:50.434Z,100.00
2023-05-12T21:12:17.679Z,100.00
2023-05-12T21:14:45.511Z,100.00
2023-05-12T21:17:12.998Z,100.00
2023-05-12T21:19:41.522Z,100.00
2023-05-12T21:22:10.536Z,100.00
2023-05-12T21:24:39.370Z,100.00
2023-05-12T21:27:08.203Z,100.00
2023-05-12T21:29:36.340Z,100.00
2023-05-12T21:32:04.185Z,100.00
2023-05-12T21:34:33.630Z,100.00
2023-05-12T21:37:00.964Z,100.00
2023-05-12T21:39:28.314Z,100.00
2023-05-12T21:41:55.718Z,100.00
2023-05-12T21:44:22.842Z,100.00
2023-05-12T21:46:50.207Z,100.00
2023-05-12T21:49:17.424Z,100.00
2023-05-12T21:51:44.613Z,100.00
2023-05-12T21:54:12.345Z,100.00
2023-05-12T21:56:39.461Z,100.00
2023-05-12T21:59:06.637Z,100.00
2023-05-12T22:01:33.851Z,100.00
2023-05-12T22:04:01.229Z,100.00
2023-05-12T22:06:28.472Z,100.00
2023-05-12T22:08:55.797Z,100.00
2023-05-12T22:11:24.140Z,100.00
2023-05-12T22:13:51.373Z,100.00
2023-05-12T22:16:21.761Z,100.00
2023-05-12T22:18:53.030Z,100.00
2023-05-12T22:21:20.476Z,100.00
2023-05-12T22:23:47.652Z,100.00
2023-05-12T22:26:15.767Z,100.00
2023-05-12T22:28:43.049Z,100.00
2023-05-12T22:31:10.280Z,100.00
2023-05-12T22:33:37.401Z,100.00
2023-05-12T22:36:04.906Z,100.00
2023-05-12T22:38:32.088Z,100.00
2023-05-12T22:40:59.301Z,100.00
2023-05-12T22:43:26.443Z,100.00
2023-05-12T22:45:55.931Z,100.00
2023-05-12T22:48:24.101Z,100.00
2023-05-12T22:50:54.612Z,100.00
2023-05-12T22:53:21.743Z,100.00
2023-05-12T22:55:48.876Z,100.00
2023-05-12T22:58:16.155Z,100.00
2023-05-12T23:00:43.362Z,100.00
2023-05-12T23:03:11.664Z,100.00
2023-05-12T23:05:38.863Z,100.00
2023-05-12T23:08:06.046Z,100.00
2023-05-12T23:10:33.200Z,100.00
2023-05-12T23:13:00.299Z,100.00
2023-05-12T23:15:27.484Z,100.00
2023-05-12T23:17:55.650Z,100.00
2023-05-12T23:20:23.240Z,100.00
2023-05-12T23:22:50.883Z,100.00
2023-05-12T23:25:18.153Z,100.00
2023-05-12T23:27:45.697Z,100.00
2023-05-12T23:30:15.759Z,100.00
2023-05-12T23:32:43.024Z,100.00
2023-05-12T23:35:10.438Z,100.00
2023-05-12T23:37:37.577Z,100.00
2023-05-12T23:40:06.083Z,100.00
2023-05-12T23:42:33.179Z,100.00
2023-05-12T23:45:00.421Z,100.00
2023-05-12T23:47:27.550Z,100.00
2023-05-12T23:49:54.692Z,100.00
2023-05-12T23:52:21.787Z,100.00
2023-05-12T23:54:48.918Z,100.00
2023-05-12T23:57:16.015Z,100.00
2023-05-12T23:59:43.088Z,100.00
